Nearby METAR Reports

 

EDNY - Friedrichshafen, Germany
Distance from station: O 31km
aktuell: 03.09.2014 08:20
klar
klar
 Wind von NO
Wind: NO 11 km/h
Temperatur: 13°C
Taupunkt: 10°C
Luftfeuchte: 82%
Luftdruck: 1018 hPa
Zusammenfassung: klar
Visibility: greater than 10 km
2014/09/03 06:20 EDNY 030620Z 04006KT CAVOK 13/10 Q1018 RMK ATIS F
LSZR - Rheineck/Altenrh, Switzerland
Distance from station: SO 42km
aktuell: 03.09.2014 08:50
teilweise bewölkt
teilweise bewölkt
 Wind von OSO
Wind: OSO 7 km/h
Temperatur: 12°C
Taupunkt: 11°C
Luftfeuchte: 94%
Luftdruck: 1018 hPa
Clouds: teilweise bewölkt
Visibility: 10 km
Cloud details: Few Clouds 457 m
teilweise bewölkt 1829 m
2014/09/03 06:50 LSZR 030650Z 11004KT 9999 FEW015 SCT060 12/11 Q1018 NOSIG RMK C
LSZH - Zurich-Kloten (a, Switzerland
Distance from station: WSW 49km
aktuell: 03.09.2014 08:50
stark bewölkt
stark bewölkt
 Wind von NNO
Wind: NNO 9 km/h
Temperatur: 14°C
Taupunkt: 12°C
Luftfeuchte: 88%
Luftdruck: 1018 hPa
Clouds: stark bewölkt
Visibility: 10 km
Cloud details: Few Clouds 305 m
stark bewölkt 671 m
2014/09/03 06:50 LSZH 030650Z 03005KT 330V070 9999 FEW010 BKN022 14/12 Q1018 NOSIG
 
EDTD - Donaueschingen, Germany
Distance from station: NW 53km
aktuell: 30.04.2014 18:20
NOT Current
sehr leichter Niederschlag, geschlossene Wolkendecke
sehr leichter Niederschlag, geschlossene Wolkendecke
 Wind von SSW
Wind: SSW 9 km/h
Temperatur: 10°C
gefühlte Temperatur: 9°C
Taupunkt: 10°C
Luftfeuchte: 100%
Luftdruck: 1011 hPa
Zusammenfassung: sehr leichter Niederschlag
Clouds: geschlossene Wolkendecke
Visibility: 9 km
Cloud details: stark bewölkt 213 m
geschlossene Wolkendecke 335 m
2014/04/30 16:20 EDTD 301620Z 20005KT 9000 -RA BKN007 OVC011 10/10 Q1011 LAST ?
ETGZ - Messstetten, Germany
Distance from station: N 54km
aktuell: 30.09.2013 14:20
NOT Current
geschlossene Wolkendecke
geschlossene Wolkendecke
 Wind von varies
Wind: varies 4 km/h
Temperatur: 8°C
Taupunkt: 7°C
Luftfeuchte: 93%
Luftdruck: 1007 hPa
Clouds: geschlossene Wolkendecke
Visibility: 10 km
Cloud details: geschlossene Wolkendecke 213 m
2013/09/30 12:20 ETGZ 301220Z VRB02KT 9999 OVC007 08/07 Q1007 GRN
LOIH - Hohenems-Dornbir, Austria
Distance from station: SO 57km
aktuell: 03.09.2014 08:00
stark bewölkt
stark bewölkt
 Wind von calm
Wind: Windstill
Temperatur: 12°C
Taupunkt: 11°C
Luftfeuchte: 94%
Luftdruck: 1018 hPa
Clouds: stark bewölkt
Cloud details: Few Clouds 457 m
teilweise bewölkt 1219 m
stark bewölkt 9144 m
2014/09/03 06:00 LOIH 030600Z 00000KT 25KM FEW015SC SCT040SC BKN300CI 12/11 Q1018 RMK BKN
 
ETHL - Laupheim (ger-Ar, Germany
Distance from station: NO 84km
aktuell: 03.09.2014 08:20
stark bewölkt
stark bewölkt
 Wind von ONO
Wind: ONO 15 km/h
Temperatur: 13°C
Taupunkt: 12°C
Luftfeuchte: 94%
Luftdruck: 1020 hPa
Clouds: stark bewölkt
Visibility: 6 km
Cloud details: teilweise bewölkt 183 m
stark bewölkt 549 m
2014/09/03 06:20 ETHL 030620Z 06008KT 6000 SCT006 BKN018 13/12 Q1020 WHT WHT TEMPO YLO
EDJA - Memmingen Allgau, Germany
Distance from station: ONO 90km
aktuell: 03.09.2014 08:50
Mist, stark bewölkt
Mist, stark bewölkt
 Wind von ONO
Wind: ONO 11 km/h
Temperatur: 12°C
Taupunkt: 11°C
Luftfeuchte: 94%
Luftdruck: 1019 hPa
Zusammenfassung: Mist
Clouds: stark bewölkt
Visibility: 4 km
Cloud details: teilweise bewölkt 91 m
stark bewölkt 152 m
2014/09/03 06:50 EDJA 030650Z 06006KT 040V100 4000 BR SCT003 BKN005 12/11 Q1019
LSME - Emmen, Switzerland
Distance from station: SW 90km
aktuell: 03.09.2014 08:50
geschlossene Wolkendecke
geschlossene Wolkendecke
 Wind von calm
Wind: Windstill
Temperatur: 14°C
Taupunkt: 11°C
Luftfeuchte: 82%
Luftdruck: 1018 hPa
Clouds: geschlossene Wolkendecke
Visibility: 10 km
Cloud details: teilweise bewölkt 640 m
geschlossene Wolkendecke 732 m
2014/09/03 06:50 LSME 030650Z 00000KT 9999 SCT021 OVC024 14/11 Q1018 RMK WHT
 
LSZC - Buochs, Switzerland
Distance from station: SSW 98km
aktuell: 03.09.2014 08:50
klar
klar
 Wind von SW
Wind: SW 7 km/h
Temperatur: 12°C
Taupunkt: 9°C
Luftfeuchte: 82%
Luftdruck: 1018 hPa
Clouds: klar
Visibility: 10 km
2014/09/03 06:50 LSZC 030650Z AUTO 22004KT 190V270 9999 NCD 12/09 Q1018